Time;durP1;ratioP1;P1;durP2;ratioP2;P2;SDS_P1;SDS_P2;PMS_P1;PMS_P2;Temp;Humidity;BMP_temperature;BMP_pressure;BME280_temperature;BME280_humidity;BME280_pressure;Samples;Min_cycle;Max_cycle;Signal;HPM_P1;HPM_P2
2024/01/21 00:01:45;;;;;;;24.17;13.73;;;-2.90;99.90;;;;;;5032518;28;20182;-67
2024/01/21 00:04:11;;;;;;;20.27;12.50;;;-2.90;99.90;;;;;;5021592;28;20202;-67
2024/01/21 00:06:37;;;;;;;20.40;13.70;;;-2.90;99.90;;;;;;5014311;28;20249;-67
2024/01/21 00:09:03;;;;;;;19.60;13.60;;;-2.80;99.90;;;;;;5014514;28;20441;-67
2024/01/21 00:11:28;;;;;;;22.70;14.73;;;-2.80;99.90;;;;;;5029037;28;20185;-67
2024/01/21 00:13:54;;;;;;;19.07;13.87;;;-2.80;99.90;;;;;;5032002;28;20189;-67
2024/01/21 00:16:19;;;;;;;18.57;12.93;;;-2.90;99.90;;;;;;5030995;28;20184;-67
2024/01/21 00:18:44;;;;;;;19.33;13.67;;;-2.90;99.90;;;;;;5028378;28;20188;-67
2024/01/21 00:21:10;;;;;;;24.80;14.10;;;-2.90;99.90;;;;;;5013218;28;20199;-67
2024/01/21 00:23:35;;;;;;;20.10;13.40;;;-3.00;99.90;;;;;;5001326;28;20245;-67
2024/01/21 00:26:01;;;;;;;22.40;13.33;;;-3.00;99.90;;;;;;5025539;28;20277;-67
2024/01/21 00:28:26;;;;;;;23.17;14.00;;;-3.10;99.90;;;;;;5031829;28;20173;-67
2024/01/21 00:30:52;;;;;;;20.60;12.83;;;-3.10;99.90;;;;;;5030260;28;20174;-67
2024/01/21 00:33:20;;;;;;;19.40;13.13;;;-3.20;99.90;;;;;;5025550;28;20222;-67
2024/01/21 00:35:45;;;;;;;20.30;12.43;;;-3.20;99.90;;;;;;5019730;28;20174;-67
2024/01/21 00:38:11;;;;;;;18.80;12.93;;;-3.20;99.90;;;;;;5027992;28;20434;-67
2024/01/21 00:40:37;;;;;;;25.67;17.00;;;-3.20;99.90;;;;;;5031898;28;20193;-67
2024/01/21 00:43:03;;;;;;;29.90;19.50;;;-3.20;99.90;;;;;;5023018;28;20549;-67
2024/01/21 00:45:28;;;;;;;26.83;16.80;;;-3.10;99.90;;;;;;5021010;28;20182;-67
2024/01/21 00:47:54;;;;;;;29.30;16.53;;;-3.10;99.90;;;;;;5020356;28;20468;-67
2024/01/21 00:50:20;;;;;;;24.93;15.10;;;-3.10;99.90;;;;;;5010856;28;20249;-67
2024/01/21 00:52:45;;;;;;;18.90;13.63;;;-3.10;99.90;;;;;;5020042;28;20171;-67
2024/01/21 00:55:11;;;;;;;22.30;14.10;;;-3.10;99.90;;;;;;5013190;28;20549;-67
2024/01/21 00:57:36;;;;;;;20.13;13.90;;;-3.20;99.90;;;;;;5031507;28;20178;-67
2024/01/21 01:00:03;;;;;;;16.20;12.43;;;-3.20;99.90;;;;;;5031720;28;20175;-67
2024/01/21 01:02:28;;;;;;;17.57;11.90;;;-3.20;99.90;;;;;;5015485;28;20190;-67
2024/01/21 01:04:54;;;;;;;16.67;11.10;;;-3.20;99.90;;;;;;5008224;28;20540;-67
2024/01/21 01:07:19;;;;;;;16.60;10.30;;;-3.20;99.90;;;;;;5020315;28;20201;-67
2024/01/21 01:09:45;;;;;;;17.77;11.80;;;-3.20;99.90;;;;;;5020696;28;20735;-67
2024/01/21 01:12:10;;;;;;;19.03;13.30;;;-3.10;99.90;;;;;;4992317;28;20207;-67
2024/01/21 01:14:39;;;;;;;18.50;13.23;;;-3.20;99.90;;;;;;4992250;28;20238;-67
2024/01/21 01:17:04;;;;;;;18.00;12.50;;;-3.20;99.90;;;;;;4992061;28;20192;-67
2024/01/21 01:19:30;;;;;;;15.63;11.70;;;-3.30;99.90;;;;;;5023769;28;20519;-67
2024/01/21 01:21:55;;;;;;;13.30;9.80;;;-3.20;99.90;;;;;;5025829;28;20195;-67
2024/01/21 01:24:21;;;;;;;15.60;10.17;;;-3.30;99.90;;;;;;5023419;28;20245;-67
2024/01/21 01:26:47;;;;;;;12.90;8.90;;;-3.20;99.90;;;;;;5031192;28;20686;-67
2024/01/21 01:29:13;;;;;;;14.83;9.40;;;-3.20;99.40;;;;;;5030900;28;20162;-67
2024/01/21 01:31:38;;;;;;;14.53;9.90;;;-3.10;97.90;;;;;;5017410;28;20967;-67
2024/01/21 01:34:03;;;;;;;16.13;9.03;;;-3.10;95.20;;;;;;5013945;28;20203;-67
2024/01/21 01:36:29;;;;;;;12.60;9.23;;;-3.10;94.90;;;;;;5031182;28;20249;-66
2024/01/21 01:38:55;;;;;;;13.17;8.97;;;-3.10;94.50;;;;;;5019382;28;20603;-67
2024/01/21 01:41:20;;;;;;;11.57;8.20;;;-3.00;94.20;;;;;;5017952;28;20282;-67
2024/01/21 01:43:46;;;;;;;9.07;7.50;;;-3.00;93.80;;;;;;5025008;28;20207;-67
2024/01/21 01:46:12;;;;;;;9.80;6.83;;;-3.10;90.80;;;;;;5012808;28;20229;-67
2024/01/21 01:48:38;;;;;;;8.67;7.53;;;-3.00;94.20;;;;;;5025002;28;20507;-67
2024/01/21 01:51:04;;;;;;;12.30;8.03;;;-3.00;90.30;;;;;;4998320;28;20984;-67
2024/01/21 01:53:31;;;;;;;12.63;8.07;;;-3.00;92.50;;;;;;5018799;28;20461;-67
2024/01/21 01:55:57;;;;;;;16.53;8.33;;;-3.00;89.40;;;;;;5016098;28;20225;-67
2024/01/21 01:58:26;;;;;;;11.90;8.93;;;-3.10;84.80;;;;;;5017840;28;20432;-67
2024/01/21 02:00:53;;;;;;;10.33;6.97;;;-3.00;81.90;;;;;;5013626;28;20438;-67
2024/01/21 02:03:18;;;;;;;10.60;7.53;;;-3.00;79.40;;;;;;5026299;28;20453;-67
2024/01/21 02:05:45;;;;;;;12.10;8.20;;;-3.00;83.40;;;;;;5014027;28;20426;-67
2024/01/21 02:08:11;;;;;;;13.80;9.20;;;-3.00;80.00;;;;;;5024271;28;20189;-67
2024/01/21 02:10:36;;;;;;;16.37;9.17;;;-3.00;75.50;;;;;;5019069;28;20436;-67
2024/01/21 02:13:02;;;;;;;11.07;8.30;;;-3.00;70.70;;;;;;5013653;28;20441;-67
2024/01/21 02:15:27;;;;;;;9.10;6.97;;;-3.00;69.90;;;;;;5023342;28;20179;-67
2024/01/21 02:17:53;;;;;;;12.57;8.17;;;-3.00;64.40;;;;;;5012800;28;20278;-67
2024/01/21 02:20:18;;;;;;;12.90;8.33;;;-3.00;64.00;;;;;;5027254;28;20635;-67
2024/01/21 02:22:44;;;;;;;11.70;8.77;;;-3.00;59.90;;;;;;5019058;28;20187;-67
2024/01/21 02:25:10;;;;;;;11.97;8.50;;;-3.00;61.60;;;;;;5018634;28;20186;-67
2024/01/21 02:27:38;;;;;;;13.10;8.30;;;-3.00;64.00;;;;;;5018713;28;20296;-67
2024/01/21 02:30:04;;;;;;;11.00;7.37;;;-3.00;68.20;;;;;;5030993;28;20917;-67
2024/01/21 02:32:29;;;;;;;13.63;8.83;;;-3.00;67.60;;;;;;5012684;28;20441;-67
2024/01/21 02:34:55;;;;;;;11.90;7.33;;;-3.00;68.90;;;;;;5012419;28;20451;-67
2024/01/21 02:37:20;;;;;;;11.50;8.00;;;-3.00;70.50;;;;;;5002365;28;20189;-67
2024/01/21 02:39:46;;;;;;;10.87;8.07;;;-3.10;72.50;;;;;;5024050;28;20272;-67
2024/01/21 02:42:12;;;;;;;10.67;7.83;;;-3.10;77.80;;;;;;5024453;28;20182;-67
2024/01/21 02:44:37;;;;;;;9.77;7.90;;;-3.10;79.50;;;;;;5052733;22;20305;-67
2024/01/21 02:47:03;;;;;;;10.73;7.30;;;-3.10;80.90;;;;;;5043284;28;20194;-67
2024/01/21 02:49:29;;;;;;;12.63;7.70;;;-3.10;82.00;;;;;;5052993;28;20653;-67
2024/01/21 02:51:55;;;;;;;12.07;8.67;;;-3.10;78.00;;;;;;5052799;28;20428;-67
2024/01/21 02:54:21;;;;;;;11.60;7.43;;;-3.10;84.20;;;;;;5053757;28;20197;-67
2024/01/21 02:56:47;;;;;;;14.23;8.27;;;-3.10;92.20;;;;;;5064072;28;20469;-67
2024/01/21 02:59:12;;;;;;;11.77;7.07;;;-3.10;90.20;;;;;;5065288;28;20425;-67
2024/01/21 03:01:38;;;;;;;9.20;6.83;;;-3.10;78.10;;;;;;5052655;28;20185;-67
2024/01/21 03:04:03;;;;;;;9.03;6.83;;;-3.00;67.30;;;;;;5057488;28;20186;-67
2024/01/21 03:06:29;;;;;;;7.50;6.80;;;-3.00;57.90;;;;;;5064691;28;20225;-67
2024/01/21 03:08:54;;;;;;;7.80;6.90;;;-2.90;57.50;;;;;;5062540;28;20185;-67
2024/01/21 03:11:20;;;;;;;11.33;7.17;;;-2.80;54.80;;;;;;5035027;28;20549;-67
2024/01/21 03:13:45;;;;;;;10.10;5.67;;;-2.80;52.90;;;;;;5033321;28;20201;-67
2024/01/21 03:16:12;;;;;;;10.87;6.60;;;-2.90;53.80;;;;;;5041766;28;20209;-67
2024/01/21 03:18:38;;;;;;;10.67;8.20;;;-2.80;51.60;;;;;;5041677;28;20188;-67
2024/01/21 03:21:07;;;;;;;7.90;5.50;;;-2.80;47.30;;;;;;5059781;28;20808;-67
2024/01/21 03:23:33;;;;;;;8.90;6.37;;;-2.80;47.10;;;;;;5064653;28;20514;-67
2024/01/21 03:25:59;;;;;;;8.70;7.10;;;-2.80;46.60;;;;;;5072928;28;20476;-67
2024/01/21 03:28:25;;;;;;;10.50;6.13;;;-2.90;46.00;;;;;;5072673;28;20415;-67
2024/01/21 03:30:50;;;;;;;10.47;6.87;;;-2.80;47.60;;;;;;5052471;28;20175;-67
2024/01/21 03:33:16;;;;;;;7.73;6.00;;;-2.90;46.00;;;;;;5033191;28;20182;-67
2024/01/21 03:35:41;;;;;;;9.33;7.50;;;-2.90;47.70;;;;;;5048276;28;20177;-67
2024/01/21 03:38:07;;;;;;;5.23;4.73;;;-2.90;47.90;;;;;;5059837;28;20215;-67
2024/01/21 03:40:32;;;;;;;7.67;5.60;;;-2.90;50.00;;;;;;5063811;28;20175;-67
2024/01/21 03:42:58;;;;;;;8.17;5.73;;;-2.90;47.20;;;;;;5063276;28;20534;-67
2024/01/21 03:45:23;;;;;;;11.50;4.93;;;-3.00;49.10;;;;;;5056685;28;20202;-67
2024/01/21 03:47:49;;;;;;;9.33;6.00;;;-3.00;50.10;;;;;;5052322;28;20182;-67
2024/01/21 03:50:18;;;;;;;8.10;5.73;;;-3.00;52.80;;;;;;5054025;28;20200;-67
2024/01/21 03:52:44;;;;;;;7.83;6.47;;;-3.00;52.40;;;;;;5067545;28;20236;-67
2024/01/21 03:55:10;;;;;;;6.63;5.53;;;-3.10;55.90;;;;;;5064854;28;20447;-67
2024/01/21 03:57:36;;;;;;;5.53;5.00;;;-3.10;56.30;;;;;;5062394;28;20462;-67
2024/01/21 04:00:02;;;;;;;7.47;5.50;;;-3.00;56.60;;;;;;5060608;28;20162;-67
2024/01/21 04:02:29;;;;;;;6.00;5.10;;;-3.00;56.70;;;;;;5050951;28;20166;-67
2024/01/21 04:04:55;;;;;;;5.30;4.60;;;-3.00;58.30;;;;;;5058341;28;20497;-67
2024/01/21 04:07:21;;;;;;;9.17;5.70;;;-3.00;59.30;;;;;;5058884;28;20532;-67
2024/01/21 04:09:46;;;;;;;6.50;5.60;;;-3.00;61.90;;;;;;5063325;28;20184;-67
2024/01/21 04:12:15;;;;;;;7.17;5.47;;;-3.00;61.60;;;;;;5067209;28;20173;-67
2024/01/21 04:14:40;;;;;;;7.43;5.40;;;-3.00;60.90;;;;;;5051622;28;20212;-67
2024/01/21 04:17:06;;;;;;;5.90;5.17;;;-3.00;61.80;;;;;;5047573;28;20459;-67
2024/01/21 04:19:31;;;;;;;8.70;6.13;;;-3.00;63.70;;;;;;5058104;28;20182;-67
2024/01/21 04:21:58;;;;;;;9.30;5.07;;;-3.10;64.30;;;;;;5057013;28;20168;-67
2024/01/21 04:24:24;;;;;;;8.70;6.30;;;-3.00;67.40;;;;;;5051472;28;20661;-67
2024/01/21 04:26:49;;;;;;;8.27;6.20;;;-3.10;69.60;;;;;;5046463;28;20475;-67
2024/01/21 04:29:15;;;;;;;7.47;5.33;;;-3.10;71.20;;;;;;5053631;28;20181;-67
2024/01/21 04:31:44;;;;;;;7.30;5.70;;;-3.10;70.80;;;;;;5057481;28;20180;-67
2024/01/21 04:34:10;;;;;;;10.27;7.13;;;-3.10;73.20;;;;;;5056155;28;20228;-67
2024/01/21 04:36:35;;;;;;;8.00;6.20;;;-3.10;78.90;;;;;;5044832;28;20960;-67
2024/01/21 04:39:01;;;;;;;9.10;5.30;;;-3.10;80.70;;;;;;5056670;28;20251;-67
2024/01/21 04:41:26;;;;;;;7.47;6.50;;;-3.10;81.40;;;;;;5052573;28;20192;-67
2024/01/21 04:43:52;;;;;;;12.03;7.47;;;-3.20;84.40;;;;;;5051836;28;20701;-67
2024/01/21 04:46:18;;;;;;;11.87;7.63;;;-3.30;88.00;;;;;;5039426;28;20639;-66
2024/01/21 04:48:43;;;;;;;11.40;7.90;;;-3.30;89.40;;;;;;5034455;28;20177;-66
2024/01/21 04:51:10;;;;;;;11.93;7.00;;;-3.40;92.90;;;;;;5065690;28;20645;-67
2024/01/21 04:53:37;;;;;;;12.10;7.53;;;-3.50;96.10;;;;;;5059429;28;20270;-67
2024/01/21 04:56:03;;;;;;;14.07;7.43;;;-3.50;97.10;;;;;;5042212;28;20451;-66
2024/01/21 04:58:29;;;;;;;8.67;7.40;;;-3.50;98.70;;;;;;5063116;28;20568;-67
2024/01/21 05:00:54;;;;;;;14.13;7.37;;;-3.50;99.50;;;;;;5054050;28;20503;-67
2024/01/21 05:03:20;;;;;;;10.63;7.10;;;-3.50;98.60;;;;;;5051775;28;20299;-67
2024/01/21 05:05:46;;;;;;;9.80;6.50;;;-3.50;98.60;;;;;;5054779;28;20174;-66
2024/01/21 05:08:12;;;;;;;8.27;5.87;;;-3.50;99.90;;;;;;5062179;28;20252;-67
2024/01/21 05:10:37;;;;;;;12.53;7.20;;;-3.50;99.90;;;;;;5052398;28;20182;-67
2024/01/21 05:13:03;;;;;;;8.17;6.37;;;-3.50;99.90;;;;;;5059275;28;20233;-67
2024/01/21 05:15:28;;;;;;;7.10;6.23;;;-3.50;99.90;;;;;;5043229;28;20639;-66
2024/01/21 05:17:56;;;;;;;10.33;7.30;;;-3.50;99.90;;;;;;5033195;28;20475;-67
2024/01/21 05:20:22;;;;;;;11.20;6.97;;;-3.40;99.90;;;;;;5048441;28;20161;-66
2024/01/21 05:22:48;;;;;;;9.73;6.13;;;-3.40;99.90;;;;;;5057558;28;21002;-67
2024/01/21 05:25:13;;;;;;;8.73;4.93;;;-3.30;96.20;;;;;;5061348;28;20518;-67
2024/01/21 05:27:39;;;;;;;7.90;5.77;;;-3.30;96.50;;;;;;5055043;28;20170;-67
2024/01/21 05:30:06;;;;;;;7.13;5.33;;;-3.30;98.40;;;;;;5048294;28;20182;-67
2024/01/21 05:32:32;;;;;;;14.33;6.30;;;-3.30;98.00;;;;;;5057519;28;20176;-67
2024/01/21 05:34:57;;;;;;;7.63;6.73;;;-3.30;95.80;;;;;;5066729;28;20443;-67
2024/01/21 05:37:23;;;;;;;7.43;6.13;;;-3.20;98.00;;;;;;5062462;28;20464;-66
2024/01/21 05:39:49;;;;;;;8.20;6.37;;;-3.20;99.90;;;;;;5039981;28;20174;-67
2024/01/21 05:42:14;;;;;;;8.70;6.10;;;-3.20;99.90;;;;;;5064578;28;20218;-66
2024/01/21 05:44:40;;;;;;;11.20;7.13;;;-3.20;98.10;;;;;;5056980;28;20209;-66
2024/01/21 05:47:05;;;;;;;7.30;5.83;;;-3.20;96.10;;;;;;5048888;28;20192;-66
2024/01/21 05:49:31;;;;;;;10.63;7.07;;;-3.10;95.40;;;;;;5060393;28;20203;-67
2024/01/21 05:51:57;;;;;;;10.60;7.20;;;-3.10;96.90;;;;;;5066795;28;20234;-67
2024/01/21 05:54:22;;;;;;;7.43;5.90;;;-3.20;98.90;;;;;;5047967;28;20448;-66
2024/01/21 05:56:48;;;;;;;10.13;6.37;;;-3.20;99.90;;;;;;5034967;28;20596;-66
2024/01/21 05:59:16;;;;;;;10.07;6.47;;;-3.20;99.90;;;;;;5060632;28;20180;-67
2024/01/21 06:01:43;;;;;;;10.03;6.80;;;-3.20;99.20;;;;;;5051503;28;20170;-66
2024/01/21 06:04:08;;;;;;;7.80;6.23;;;-3.20;96.30;;;;;;5055389;28;20819;-67
2024/01/21 06:06:34;;;;;;;8.93;6.67;;;-3.20;94.80;;;;;;5043750;28;20427;-66
2024/01/21 06:08:59;;;;;;;8.87;6.73;;;-3.30;99.90;;;;;;5045464;28;20182;-66
2024/01/21 06:11:26;;;;;;;8.63;6.37;;;-3.40;99.90;;;;;;5062659;28;20170;-67
2024/01/21 06:13:51;;;;;;;10.93;6.90;;;-3.50;99.90;;;;;;5056213;28;20193;-66
2024/01/21 06:16:17;;;;;;;10.43;6.17;;;-3.50;99.90;;;;;;5049704;28;20477;-66
2024/01/21 06:18:43;;;;;;;10.33;6.83;;;-3.60;99.90;;;;;;5046457;28;20173;-66
2024/01/21 06:21:08;;;;;;;8.30;6.93;;;-3.60;99.90;;;;;;5061999;28;20679;-66
2024/01/21 06:23:34;;;;;;;11.10;7.10;;;-3.50;99.90;;;;;;5054159;28;20189;-66
2024/01/21 06:25:59;;;;;;;10.20;7.10;;;-3.50;99.90;;;;;;5061724;28;20185;-67
2024/01/21 06:28:25;;;;;;;9.17;7.10;;;-3.50;99.90;;;;;;5047997;28;20269;-66
2024/01/21 06:30:50;;;;;;;7.40;5.97;;;-3.50;99.90;;;;;;5060024;28;20186;-66
2024/01/21 06:33:16;;;;;;;9.30;6.47;;;-3.50;99.90;;;;;;5064923;28;20169;-66
2024/01/21 06:35:42;;;;;;;9.77;5.73;;;-3.50;99.90;;;;;;5064522;28;20184;-66
2024/01/21 06:38:07;;;;;;;8.33;6.17;;;-3.50;99.90;;;;;;5053622;28;20205;-66
2024/01/21 06:40:33;;;;;;;15.60;9.07;;;-3.50;99.90;;;;;;5053999;28;20158;-66
2024/01/21 06:42:58;;;;;;;12.77;9.07;;;-3.50;99.90;;;;;;5051544;28;20182;-66
2024/01/21 06:45:24;;;;;;;13.67;7.20;;;-3.50;99.90;;;;;;5062116;28;20270;-66
2024/01/21 06:47:50;;;;;;;10.17;6.13;;;-3.40;99.90;;;;;;5056919;28;20184;-66
2024/01/21 06:50:15;;;;;;;10.23;7.90;;;-3.40;99.90;;;;;;5036145;28;20182;-66
2024/01/21 06:52:41;;;;;;;10.40;7.10;;;-3.40;99.90;;;;;;5036915;28;20677;-66
2024/01/21 06:55:06;;;;;;;9.40;7.30;;;-3.30;99.90;;;;;;5052226;28;20259;-66
2024/01/21 06:57:32;;;;;;;9.13;7.00;;;-3.30;99.90;;;;;;5052216;28;20339;-66
2024/01/21 06:59:58;;;;;;;10.43;7.30;;;-3.30;99.90;;;;;;5062722;28;20762;-66
2024/01/21 07:02:23;;;;;;;11.67;7.43;;;-3.30;99.90;;;;;;5039982;28;20538;-66
2024/01/21 07:04:49;;;;;;;10.90;7.93;;;-3.20;99.90;;;;;;5038767;28;20641;-66
2024/01/21 07:07:14;;;;;;;9.60;7.37;;;-3.20;99.90;;;;;;5060485;28;20212;-66
2024/01/21 07:09:43;;;;;;;8.20;6.27;;;-3.20;99.90;;;;;;5060776;28;20566;-66
2024/01/21 07:12:09;;;;;;;8.87;6.13;;;-3.20;99.60;;;;;;5068650;28;20232;-67
2024/01/21 07:14:35;;;;;;;8.30;6.80;;;-3.20;99.90;;;;;;5064728;28;20450;-67
2024/01/21 07:17:03;;;;;;;11.97;7.53;;;-3.20;99.90;;;;;;5050948;28;20210;-67
2024/01/21 07:19:29;;;;;;;8.27;6.97;;;-3.20;99.90;;;;;;5033981;28;20178;-67
2024/01/21 07:21:54;;;;;;;9.47;7.30;;;-3.20;99.90;;;;;;5053996;28;20462;-67
2024/01/21 07:24:20;;;;;;;7.30;6.43;;;-3.20;99.90;;;;;;5056553;28;20193;-66
2024/01/21 07:26:45;;;;;;;7.90;6.60;;;-3.10;99.90;;;;;;5072674;28;20642;-66
2024/01/21 07:29:13;;;;;;;11.30;7.70;;;-3.00;99.90;;;;;;5049487;28;20185;-67
2024/01/21 07:31:39;;;;;;;9.30;7.93;;;-3.00;99.90;;;;;;5058372;28;20273;-67
2024/01/21 07:34:08;;;;;;;7.90;6.60;;;-3.00;99.90;;;;;;5061747;28;20999;-67
2024/01/21 07:36:34;;;;;;;9.60;7.10;;;-2.90;99.90;;;;;;5064728;28;20196;-67
2024/01/21 07:39:00;;;;;;;11.40;8.03;;;-2.80;99.90;;;;;;5051707;28;20775;-67
2024/01/21 07:41:25;;;;;;;10.67;6.90;;;-2.70;98.90;;;;;;5032922;28;20178;-67
2024/01/21 07:43:51;;;;;;;11.07;7.30;;;-2.60;99.90;;;;;;5053411;28;20204;-67
2024/01/21 07:46:16;;;;;;;10.53;7.93;;;-2.40;95.60;;;;;;5063881;28;20645;-66
2024/01/21 07:48:42;;;;;;;8.67;7.27;;;-2.30;94.40;;;;;;5045535;28;20258;-66
2024/01/21 07:51:07;;;;;;;11.97;8.10;;;-2.10;93.40;;;;;;5062489;28;20639;-66
2024/01/21 07:53:33;;;;;;;10.23;7.60;;;-1.80;92.90;;;;;;5050526;28;20216;-66
2024/01/21 07:55:58;;;;;;;8.43;7.47;;;-1.60;90.70;;;;;;5058982;28;20602;-66
2024/01/21 07:58:24;;;;;;;12.40;8.73;;;-1.40;87.10;;;;;;5059372;28;20242;-66
2024/01/21 08:00:49;;;;;;;10.73;8.03;;;-1.10;79.40;;;;;;5051886;28;20166;-66
2024/01/21 08:03:15;;;;;;;12.47;9.40;;;-1.00;63.30;;;;;;5044739;28;20188;-65
2024/01/21 08:05:40;;;;;;;12.90;9.97;;;-0.70;71.10;;;;;;5064975;28;20184;-65
2024/01/21 08:08:06;;;;;;;10.80;9.40;;;-0.40;50.90;;;;;;5070238;28;20195;-65
2024/01/21 08:10:32;;;;;;;17.97;14.93;;;-0.10;75.40;;;;;;5054938;28;20166;-65
2024/01/21 08:12:58;;;;;;;19.07;13.30;;;0.10;39.80;;;;;;5037932;28;20206;-65
2024/01/21 08:15:23;;;;;;;13.40;10.20;;;0.30;32.20;;;;;;5058364;28;20883;-65
2024/01/21 08:17:49;;;;;;;13.50;10.00;;;0.70;26.70;;;;;;5051376;28;20712;-65
2024/01/21 08:20:15;;;;;;;11.53;9.07;;;1.10;15.10;;;;;;5060249;28;20178;-65
2024/01/21 08:22:40;;;;;;;12.73;9.23;;;1.20;1.00;;;;;;5046782;28;20198;-66
2024/01/21 08:25:06;;;;;;;15.00;10.70;;;1.30;1.00;;;;;;5059772;28;20224;-66
2024/01/21 08:27:31;;;;;;;11.20;10.00;;;1.50;1.00;;;;;;5061479;28;20234;-66
2024/01/21 08:29:57;;;;;;;10.10;8.63;;;1.50;1.00;;;;;;5054395;28;20173;-66
2024/01/21 08:32:22;;;;;;;14.27;10.80;;;1.60;1.00;;;;;;5052418;28;20181;-66
2024/01/21 08:34:48;;;;;;;11.87;9.47;;;1.40;1.00;;;;;;5053156;28;20198;-66
2024/01/21 08:37:13;;;;;;;11.87;10.77;;;1.40;1.00;;;;;;5061630;28;20198;-66
2024/01/21 08:39:39;;;;;;;15.60;13.87;;;1.30;4.70;;;;;;5071993;28;20168;-66
2024/01/21 08:42:05;;;;;;;14.87;9.90;;;1.10;9.80;;;;;;5069803;28;20681;-66
2024/01/21 08:44:30;;;;;;;13.60;9.43;;;0.70;10.60;;;;;;5060522;22;20213;-71
2024/01/21 08:46:57;;;;;;;10.53;8.97;;;0.40;18.40;;;;;;5026032;28;20404;-71
2024/01/21 08:49:23;;;;;;;11.33;8.33;;;0.30;25.70;;;;;;5018524;28;20183;-72
2024/01/21 08:51:48;;;;;;;10.23;8.60;;;0.40;33.70;;;;;;5026154;28;20444;-72
2024/01/21 08:54:14;;;;;;;10.40;8.53;;;0.30;26.70;;;;;;5031831;28;20197;-71
2024/01/21 08:56:39;;;;;;;11.03;8.47;;;0.40;29.80;;;;;;5031703;28;20260;-71
2024/01/21 08:59:05;;;;;;;9.50;7.20;;;0.30;25.00;;;;;;5022271;28;20591;-71
2024/01/21 09:01:30;;;;;;;13.67;8.50;;;0.20;30.90;;;;;;5009135;28;20179;-71
2024/01/21 09:03:56;;;;;;;9.60;8.07;;;0.10;31.20;;;;;;4996334;28;20199;-72
2024/01/21 09:06:22;;;;;;;11.60;10.10;;;0.10;36.90;;;;;;5022177;28;20183;-72
2024/01/21 09:08:51;;;;;;;11.87;7.80;;;0.10;40.70;;;;;;5031071;28;20173;-71
2024/01/21 09:11:17;;;;;;;10.83;9.20;;;0.20;43.80;;;;;;5026852;28;20174;-72
2024/01/21 09:13:43;;;;;;;8.50;7.20;;;0.20;41.40;;;;;;5016516;28;20521;-71
2024/01/21 09:16:09;;;;;;;10.47;7.90;;;0.40;38.00;;;;;;5003408;28;20265;-71
2024/01/21 09:18:35;;;;;;;9.40;6.80;;;0.40;35.90;;;;;;5003508;28;20265;-73
2024/01/21 09:21:00;;;;;;;8.70;7.03;;;0.50;31.60;;;;;;5014509;28;20261;-69
2024/01/21 09:23:26;;;;;;;8.50;6.80;;;0.50;29.40;;;;;;5001135;28;20446;-71
2024/01/21 09:25:52;;;;;;;9.00;7.77;;;0.50;22.90;;;;;;5009687;28;20195;-71
2024/01/21 09:28:18;;;;;;;8.47;6.30;;;0.50;25.60;;;;;;5017501;28;20189;-70
2024/01/21 09:30:43;;;;;;;9.53;7.80;;;0.40;26.30;;;;;;5004121;28;20176;-71
2024/01/21 09:33:09;;;;;;;9.07;7.87;;;0.40;27.70;;;;;;5012508;28;20464;-70
2024/01/21 09:35:34;;;;;;;13.43;8.77;;;0.40;29.90;;;;;;5021657;28;20195;-71
2024/01/21 09:38:00;;;;;;;9.13;7.67;;;0.40;32.90;;;;;;5012951;28;20626;-70
2024/01/21 09:40:25;;;;;;;11.77;8.80;;;0.40;30.00;;;;;;5015543;28;20177;-71
2024/01/21 09:42:51;;;;;;;10.57;8.30;;;0.40;32.60;;;;;;5009095;28;20180;-70
2024/01/21 09:45:19;;;;;;;11.87;8.30;;;0.40;37.00;;;;;;5016627;28;20236;-71
2024/01/21 09:47:47;;;;;;;13.73;9.50;;;0.50;33.30;;;;;;5011698;28;20648;-70
2024/01/21 09:50:14;;;;;;;10.20;8.57;;;0.50;38.60;;;;;;5008165;28;20512;-71
2024/01/21 09:52:40;;;;;;;12.90;8.07;;;0.60;37.20;;;;;;5007217;28;20436;-72
2024/01/21 09:55:06;;;;;;;10.57;8.43;;;0.70;40.60;;;;;;5008464;28;20500;-71
2024/01/21 09:57:32;;;;;;;10.70;9.33;;;0.80;37.90;;;;;;5007601;28;20202;-70
2024/01/21 09:59:58;;;;;;;13.50;9.40;;;0.90;30.60;;;;;;5019578;28;21190;-71
2024/01/21 10:02:25;;;;;;;12.43;8.87;;;1.10;23.60;;;;;;5029004;28;20582;-70
2024/01/21 10:04:51;;;;;;;12.40;9.90;;;1.30;1.00;;;;;;5021640;28;20195;-72
2024/01/21 10:07:17;;;;;;;14.00;9.50;;;1.50;1.00;;;;;;5024382;28;20436;-71
2024/01/21 10:09:50;;;;;;;11.97;9.53;;;1.70;1.00;;;;;;5010065;28;20263;-71
2024/01/21 10:12:17;;;;;;;11.00;8.47;;;2.20;1.00;;;;;;5010536;28;20556;-71
2024/01/21 10:14:43;;;;;;;11.67;9.37;;;3.00;1.00;;;;;;5007502;28;20465;-71
2024/01/21 10:17:08;;;;;;;13.20;10.70;;;3.20;1.00;;;;;;5032475;28;20836;-72
2024/01/21 10:19:34;;;;;;;18.17;12.17;;;3.20;1.00;;;;;;5034255;28;20178;-72
2024/01/21 10:22:14;;;;;;;11.37;9.10;;;3.00;1.00;;;;;;5030868;28;20189;-70
2024/01/21 10:24:47;;;;;;;11.27;9.77;;;2.80;1.00;;;;;;5020964;28;20595;-70
2024/01/21 10:27:13;;;;;;;14.13;9.57;;;2.70;1.00;;;;;;5013525;28;20447;-69
2024/01/21 10:29:41;;;;;;;14.17;9.40;;;2.90;1.00;;;;;;5018936;28;20436;-71
2024/01/21 10:32:09;;;;;;;14.20;9.00;;;3.10;1.00;;;;;;5027723;28;20466;-71
2024/01/21 10:34:35;;;;;;;12.30;8.60;;;3.50;1.00;;;;;;5029070;28;20456;-71
2024/01/21 10:37:03;;;;;;;15.73;10.30;;;3.80;99.90;;;;;;5033746;28;20821;-71
2024/01/21 10:39:31;;;;;;;13.80;9.10;;;4.30;99.90;;;;;;5034192;28;20508;-72
2024/01/21 10:41:57;;;;;;;12.20;9.10;;;4.20;1.00;;;;;;5018037;28;20425;-72
2024/01/21 10:44:23;;;;;;;14.90;8.30;;;3.80;22.20;;;;;;5013335;28;21048;-72
2024/01/21 10:46:51;;;;;;;9.67;8.67;;;3.60;99.90;;;;;;5014113;28;20496;-72
2024/01/21 10:49:18;;;;;;;13.03;9.77;;;3.70;99.90;;;;;;5019915;28;20526;-72
2024/01/21 10:51:45;;;;;;;11.77;9.47;;;3.70;99.90;;;;;;5033731;28;20427;-72
2024/01/21 10:54:12;;;;;;;11.20;8.40;;;3.60;99.90;;;;;;5033674;28;20436;-70
2024/01/21 10:56:38;;;;;;;10.97;8.00;;;3.60;99.90;;;;;;5016665;28;20469;-71
2024/01/21 10:59:04;;;;;;;13.13;8.97;;;3.60;99.90;;;;;;5013077;28;20434;-73
2024/01/21 11:01:31;;;;;;;8.67;7.77;;;3.70;99.90;;;;;;5025240;28;20440;-71
2024/01/21 11:04:07;;;;;;;9.73;8.20;;;4.10;99.90;;;;;;5032187;28;20487;-71
2024/01/21 11:06:33;;;;;;;14.60;11.60;;;4.30;17.50;;;;;;5048614;28;20425;-72
2024/01/21 11:09:03;;;;;;;12.53;10.03;;;4.20;1.00;;;;;;5033496;28;20428;-70
2024/01/21 11:11:28;;;;;;;14.33;9.63;;;4.10;99.90;;;;;;5003632;28;20471;-71
2024/01/21 11:13:54;;;;;;;27.70;19.90;;;4.10;99.90;;;;;;5003825;28;20469;-71
2024/01/21 11:16:26;;;;;;;30.73;21.33;;;4.00;99.90;;;;;;5017726;28;20212;-70
2024/01/21 11:19:05;;;;;;;20.20;13.63;;;4.10;99.90;;;;;;5033288;28;20421;-72
2024/01/21 11:21:31;;;;;;;13.67;10.57;;;4.40;99.90;;;;;;5032497;28;20834;-71
2024/01/21 11:24:04;;;;;;;15.53;14.07;;;4.70;99.90;;;;;;5026050;28;20494;-72
2024/01/21 11:26:31;;;;;;;11.47;10.30;;;4.90;1.00;;;;;;5021784;28;20447;-72
2024/01/21 11:28:58;;;;;;;19.43;16.40;;;4.80;1.00;;;;;;5024191;28;20934;-72
2024/01/21 11:31:25;;;;;;;16.30;14.50;;;4.50;1.00;;;;;;5025090;28;20969;-72
2024/01/21 11:34:04;;;;;;;10.80;9.70;;;4.50;99.90;;;;;;5029029;28;20587;-71
2024/01/21 11:36:30;;;;;;;11.50;8.90;;;4.60;99.90;;;;;;5032671;28;20452;-72
2024/01/21 11:38:57;;;;;;;10.63;9.30;;;4.70;99.90;;;;;;5025826;28;20441;-71
2024/01/21 11:41:34;;;;;;;9.17;8.27;;;4.70;99.90;;;;;;5024137;28;20424;-71
2024/01/21 11:44:13;;;;;;;11.80;10.40;;;4.40;99.90;;;;;;5065882;28;20554;-70
2024/01/21 11:46:43;;;;;;;12.23;8.97;;;4.30;1.00;;;;;;5063418;28;20415;-70
2024/01/21 11:49:09;;;;;;;12.00;8.70;;;4.60;1.00;;;;;;5047242;28;20496;-71
2024/01/21 11:51:35;;;;;;;12.43;8.47;;;4.90;99.90;;;;;;5029419;28;20492;-70
2024/01/21 11:54:01;;;;;;;11.37;8.30;;;5.30;99.90;;;;;;5031954;28;20257;-71
2024/01/21 11:56:27;;;;;;;12.93;8.53;;;5.50;99.90;;;;;;5062392;23;20488;-71
2024/01/21 11:58:52;;;;;;;11.83;9.57;;;5.90;99.90;;;;;;5047212;28;20177;-71
2024/01/21 12:01:20;;;;;;;10.77;8.23;;;6.40;99.90;;;;;;5038631;28;20202;-71
2024/01/21 12:03:47;;;;;;;11.70;10.10;;;7.00;99.90;;;;;;5057134;28;20248;-71
2024/01/21 12:06:15;;;;;;;7.80;7.10;;;6.90;99.90;;;;;;5067934;28;20435;-71
2024/01/21 12:08:43;;;;;;;8.97;6.93;;;6.90;99.90;;;;;;5069003;28;20510;-71
2024/01/21 12:11:09;;;;;;;9.30;7.57;;;6.60;99.90;;;;;;5036576;28;20428;-71
2024/01/21 12:13:36;;;;;;;9.07;8.13;;;6.90;99.90;;;;;;5060512;28;20798;-71
2024/01/21 12:16:01;;;;;;;10.87;7.17;;;7.90;99.30;;;;;;5050813;28;20200;-71
2024/01/21 12:18:27;;;;;;;12.23;6.80;;;9.40;95.70;;;;;;5040334;28;20944;-71
2024/01/21 12:20:55;;;;;;;6.93;6.17;;;11.20;82.60;;;;;;5065098;28;20601;-71
2024/01/21 12:23:23;;;;;;;9.93;6.13;;;13.10;69.10;;;;;;5040448;28;20731;-71
2024/01/21 12:25:49;;;;;;;8.57;6.70;;;13.00;58.30;;;;;;5051950;28;20832;-71
2024/01/21 12:28:15;;;;;;;7.10;6.30;;;13.20;57.30;;;;;;5041155;28;20450;-71
2024/01/21 12:30:40;;;;;;;9.20;7.70;;;13.40;53.40;;;;;;5050681;28;20423;-71
2024/01/21 12:33:06;;;;;;;8.97;6.70;;;12.00;54.30;;;;;;5068567;28;20169;-72
2024/01/21 12:35:32;;;;;;;7.50;6.80;;;12.00;55.10;;;;;;5061735;28;20384;-71
2024/01/21 12:38:00;;;;;;;6.40;5.80;;;13.20;54.40;;;;;;5055982;28;20170;-72